createdAt,value
2022-12-19T00:01:53.644Z,101530.91
2022-12-19T00:04:39.629Z,101524.44
2022-12-19T00:07:25.271Z,101528.59
2022-12-19T00:10:10.547Z,101524.81
2022-12-19T00:12:55.972Z,101518.75
2022-12-19T00:15:41.674Z,101510.81
2022-12-19T00:18:26.852Z,101511.38
2022-12-19T00:21:14.244Z,101501.09
2022-12-19T00:23:59.677Z,101502.22
2022-12-19T00:26:45.230Z,101499.44
2022-12-19T00:29:30.249Z,101486.09
2022-12-19T00:32:15.715Z,101485.53
2022-12-19T00:35:03.366Z,101484.00
2022-12-19T00:37:49.667Z,101485.00
2022-12-19T00:40:35.489Z,101474.63
2022-12-19T00:43:21.067Z,101474.50
2022-12-19T00:46:09.462Z,101466.72
2022-12-19T00:48:56.318Z,101452.13
2022-12-19T00:51:42.048Z,101462.28
2022-12-19T00:54:28.280Z,101461.19
2022-12-19T00:57:13.876Z,101456.78
2022-12-19T00:59:59.227Z,101449.47
2022-12-19T01:02:44.740Z,101438.63
2022-12-19T01:05:30.389Z,101436.00
2022-12-19T01:08:16.655Z,101437.19
2022-12-19T01:11:04.136Z,101433.34
2022-12-19T01:13:51.438Z,101430.25
2022-12-19T01:16:36.538Z,101423.84
2022-12-19T01:19:21.788Z,101422.94
2022-12-19T01:22:06.892Z,101427.59
2022-12-19T01:24:52.820Z,101433.56
2022-12-19T01:27:38.398Z,101430.34
2022-12-19T01:30:24.082Z,101432.22
2022-12-19T01:33:15.225Z,101427.47
2022-12-19T01:36:00.489Z,101420.06
2022-12-19T01:38:46.132Z,101421.16
2022-12-19T01:41:31.408Z,101412.44
2022-12-19T01:44:16.699Z,101407.56
2022-12-19T01:47:02.117Z,101405.13
2022-12-19T01:49:47.571Z,101398.94
2022-12-19T01:52:33.098Z,101394.97
2022-12-19T01:55:19.939Z,101392.94
2022-12-19T01:58:06.438Z,101385.88
2022-12-19T02:00:52.131Z,101383.34
2022-12-19T02:03:38.193Z,101371.41
2022-12-19T02:06:25.364Z,101374.81
2022-12-19T02:09:14.563Z,101381.13
2022-12-19T02:12:00.919Z,101376.47
2022-12-19T02:14:47.299Z,101369.38
2022-12-19T02:18:03.991Z,101361.97
2022-12-19T02:21:07.233Z,101349.03
2022-12-19T02:24:27.389Z,101348.06
2022-12-19T02:27:45.209Z,101353.56
2022-12-19T02:30:37.523Z,101343.47
2022-12-19T02:33:55.361Z,101351.44
2022-12-19T02:36:53.210Z,101363.97
2022-12-19T02:40:11.976Z,101346.34
2022-12-19T02:43:02.783Z,101346.03
2022-12-19T02:45:48.779Z,101338.72
2022-12-19T02:48:34.966Z,101331.88
2022-12-19T02:51:20.050Z,101332.63
2022-12-19T02:54:05.572Z,101330.00
2022-12-19T02:57:09.694Z,101335.50
2022-12-19T03:00:04.533Z,101340.88
2022-12-19T03:03:10.088Z,101333.38
2022-12-19T03:06:08.701Z,101316.09
2022-12-19T03:08:59.901Z,101312.66
2022-12-19T03:11:49.781Z,101319.31
2022-12-19T03:14:37.350Z,101321.47
2022-12-19T03:17:23.109Z,101301.31
2022-12-19T03:20:18.942Z,101298.22
2022-12-19T03:23:04.311Z,101286.47
2022-12-19T03:25:54.313Z,101277.38
2022-12-19T03:28:48.134Z,101274.97
2022-12-19T03:31:35.900Z,101277.44
2022-12-19T03:34:26.771Z,101272.16
2022-12-19T03:37:17.129Z,101257.75
2022-12-19T03:40:07.909Z,101246.91
2022-12-19T03:42:59.139Z,101248.56
2022-12-19T03:46:01.142Z,101236.25
2022-12-19T03:48:49.996Z,101230.16
2022-12-19T03:51:48.242Z,101218.31
2022-12-19T03:54:42.195Z,101213.00
2022-12-19T03:57:34.690Z,101204.19
2022-12-19T04:00:20.863Z,101214.09
2022-12-19T04:03:07.238Z,101212.13
2022-12-19T04:05:53.708Z,101198.63
2022-12-19T04:08:39.883Z,101193.31
2022-12-19T04:11:30.209Z,101193.44
2022-12-19T04:14:28.304Z,101199.50
2022-12-19T04:17:28.573Z,101197.25
2022-12-19T04:20:21.060Z,101192.84
2022-12-19T04:23:18.609Z,101194.41
2022-12-19T04:26:06.482Z,101185.31
2022-12-19T04:29:00.222Z,101188.34
2022-12-19T04:31:48.181Z,101187.09
2022-12-19T04:34:35.355Z,101184.66
2022-12-19T04:37:23.353Z,101184.53
2022-12-19T04:40:10.039Z,101189.25
2022-12-19T04:42:55.600Z,101193.44
2022-12-19T04:45:41.674Z,101188.28
2022-12-19T04:48:26.929Z,101182.38
2022-12-19T04:51:14.307Z,101176.91
2022-12-19T04:53:59.453Z,101160.44
2022-12-19T04:56:44.727Z,101159.19
2022-12-19T04:59:29.924Z,101144.69
2022-12-19T05:02:15.134Z,101144.88
2022-12-19T05:05:00.226Z,101133.94
2022-12-19T05:07:45.738Z,101126.59
2022-12-19T05:10:31.098Z,101131.06
2022-12-19T05:13:16.354Z,101133.06
2022-12-19T05:16:04.839Z,101126.09
2022-12-19T05:18:50.227Z,101128.84
2022-12-19T05:21:35.791Z,101128.03
2022-12-19T05:24:21.095Z,101119.13
2022-12-19T05:27:06.723Z,101118.16
2022-12-19T05:29:52.046Z,101114.53
2022-12-19T05:32:37.474Z,101125.00
2022-12-19T05:35:22.751Z,101116.38
2022-12-19T05:38:07.968Z,101107.38
2022-12-19T05:40:54.113Z,101107.47
2022-12-19T05:43:39.687Z,101102.59
2022-12-19T05:46:25.565Z,101105.31
2022-12-19T05:49:11.306Z,101102.84
2022-12-19T05:51:56.632Z,101093.53
2022-12-19T05:54:42.236Z,101091.91
2022-12-19T05:57:27.551Z,101093.03
2022-12-19T06:00:13.367Z,101099.22
2022-12-19T06:02:59.206Z,101105.19
2022-12-19T06:05:45.004Z,101113.09
2022-12-19T06:08:30.775Z,101115.66
2022-12-19T06:11:16.011Z,101113.09
2022-12-19T06:14:01.387Z,101108.22
2022-12-19T06:16:46.923Z,101122.91
2022-12-19T06:19:32.479Z,101108.59
2022-12-19T06:22:17.911Z,101101.91
2022-12-19T06:25:03.311Z,101102.50
2022-12-19T06:27:48.601Z,101102.00
2022-12-19T06:30:34.090Z,101107.16
2022-12-19T06:33:19.509Z,101107.94
2022-12-19T06:36:12.186Z,101117.34
2022-12-19T06:38:58.591Z,101115.78
2022-12-19T06:41:44.048Z,101119.38
2022-12-19T06:44:31.629Z,101121.59
2022-12-19T06:47:30.298Z,101115.91
2022-12-19T06:50:15.584Z,101124.50
2022-12-19T06:53:00.937Z,101122.66
2022-12-19T06:55:48.028Z,101114.06
2022-12-19T06:58:33.824Z,101118.31
2022-12-19T07:01:20.966Z,101117.88
2022-12-19T07:04:09.058Z,101110.38
2022-12-19T07:06:54.742Z,101106.38
2022-12-19T07:09:40.467Z,101117.19
2022-12-19T07:12:25.760Z,101107.44
2022-12-19T07:15:11.379Z,101116.06
2022-12-19T07:17:57.004Z,101107.94
2022-12-19T07:20:45.260Z,101109.44
2022-12-19T07:23:31.995Z,101117.72
2022-12-19T07:26:18.619Z,101109.19
2022-12-19T07:29:08.328Z,101112.53
2022-12-19T07:31:54.837Z,101120.28
2022-12-19T07:34:41.551Z,101112.28
2022-12-19T07:37:27.569Z,101113.25
2022-12-19T07:40:15.036Z,101120.38
2022-12-19T07:43:07.316Z,101116.31
2022-12-19T07:45:58.386Z,101117.03
2022-12-19T07:48:47.373Z,101124.84
2022-12-19T07:51:33.125Z,101129.09
2022-12-19T07:54:18.535Z,101125.72
2022-12-19T07:57:05.771Z,101127.16
2022-12-19T07:59:52.196Z,101124.50
2022-12-19T08:02:39.720Z,101126.09
2022-12-19T08:05:29.327Z,101127.22
2022-12-19T08:08:15.220Z,101119.56
2022-12-19T08:11:14.524Z,101117.09
2022-12-19T08:14:01.933Z,101115.16
2022-12-19T08:17:18.888Z,101125.75
2022-12-19T08:19:54.209Z,101114.03
2022-12-19T08:22:41.678Z,101124.69
2022-12-19T08:25:28.051Z,101119.88
2022-12-19T08:28:16.830Z,101129.44
2022-12-19T08:31:16.046Z,101129.09
2022-12-19T08:34:01.766Z,101118.16
2022-12-19T08:36:48.821Z,101119.75
2022-12-19T08:39:37.204Z,101106.19
2022-12-19T08:42:25.723Z,101109.16
2022-12-19T08:45:14.127Z,101101.94
2022-12-19T08:48:01.537Z,101114.69
2022-12-19T08:51:10.614Z,101112.84
2022-12-19T08:53:57.868Z,101110.91
2022-12-19T08:56:53.206Z,101119.25
2022-12-19T08:59:40.229Z,101110.81
2022-12-19T09:02:29.735Z,101129.75
2022-12-19T09:06:00.544Z,101112.59
2022-12-19T09:08:26.701Z,101116.19
2022-12-19T09:11:17.256Z,101120.50
2022-12-19T09:14:03.304Z,101120.53
2022-12-19T09:16:57.036Z,101126.31
2022-12-19T09:19:47.874Z,101114.09
2022-12-19T09:22:40.882Z,101105.63
2022-12-19T09:25:31.727Z,101109.84
2022-12-19T09:28:27.406Z,101112.47
2022-12-19T09:31:25.972Z,101116.81
2022-12-19T09:34:12.145Z,101112.84
2022-12-19T09:36:57.709Z,101093.47
2022-12-19T09:39:43.039Z,101098.94
2022-12-19T09:42:39.397Z,101105.66
2022-12-19T09:45:53.381Z,101111.47
2022-12-19T09:48:38.535Z,101104.69
2022-12-19T09:51:35.363Z,101108.41
2022-12-19T09:54:43.555Z,101117.47
2022-12-19T09:58:07.648Z,101111.44
2022-12-19T10:01:00.136Z,101102.03
2022-12-19T10:03:59.619Z,101098.75
2022-12-19T10:07:27.179Z,101091.38
2022-12-19T10:12:34.094Z,101094.47
2022-12-19T10:13:33.212Z,101092.53
2022-12-19T10:20:25.683Z,101101.38
2022-12-19T10:23:53.305Z,101089.06
2022-12-19T10:30:27.920Z,101096.91
2022-12-19T10:40:37.788Z,101104.38
2022-12-19T10:43:55.173Z,101102.81
2022-12-19T10:46:48.872Z,101091.59
2022-12-19T10:49:34.197Z,101083.41
2022-12-19T10:52:50.023Z,101082.69
2022-12-19T10:55:38.484Z,101069.34
2022-12-19T10:58:32.471Z,101075.97
2022-12-19T11:01:30.148Z,101085.22
2022-12-19T11:04:36.576Z,101084.00
2022-12-19T11:07:22.180Z,101083.50
2022-12-19T11:12:22.331Z,101069.28
2022-12-19T11:18:52.771Z,101076.38
2022-12-19T11:21:18.355Z,101064.41
2022-12-19T11:29:27.584Z,101066.69
2022-12-19T11:30:36.677Z,101073.81
2022-12-19T11:30:46.073Z,101057.22
2022-12-19T11:33:27.370Z,101052.97
2022-12-19T11:36:41.745Z,101043.16
2022-12-19T11:39:48.251Z,101052.13
2022-12-19T11:42:44.173Z,101041.38
2022-12-19T11:45:41.634Z,101039.78
2022-12-19T11:48:27.644Z,101036.78
2022-12-19T11:51:35.185Z,101022.44
2022-12-19T11:54:26.785Z,101022.50
2022-12-19T11:57:24.260Z,101017.59
2022-12-19T12:00:30.455Z,101018.66
2022-12-19T12:03:41.071Z,101005.91
2022-12-19T12:06:48.216Z,101005.91
2022-12-19T12:14:54.956Z,101001.06
2022-12-19T12:23:44.848Z,101004.50
2022-12-19T12:27:09.734Z,100990.25
2022-12-19T12:30:14.630Z,100994.28
2022-12-19T12:32:05.583Z,100983.66
2022-12-19T12:32:06.161Z,100979.97
2022-12-19T12:35:16.297Z,100984.59
2022-12-19T12:35:48.611Z,100984.34
2022-12-19T12:38:18.795Z,100979.56
2022-12-19T12:41:04.832Z,100975.19
2022-12-19T12:44:09.388Z,100969.00
2022-12-19T12:47:17.116Z,100966.63
2022-12-19T12:50:16.395Z,100962.56
2022-12-19T12:53:07.287Z,100967.66
2022-12-19T12:55:56.429Z,100961.69
2022-12-19T12:58:47.750Z,100973.63
2022-12-19T13:01:38.858Z,100972.84
2022-12-19T13:04:31.572Z,100968.50
2022-12-19T13:07:29.191Z,100963.69
2022-12-19T13:10:16.882Z,100951.00
2022-12-19T13:13:17.400Z,100942.59
2022-12-19T13:16:43.681Z,100942.00
2022-12-19T13:19:32.013Z,100928.13
2022-12-19T13:22:20.714Z,100929.56
2022-12-19T13:25:31.264Z,100933.06
2022-12-19T13:28:23.206Z,100915.94
2022-12-19T13:31:18.792Z,100912.38
2022-12-19T13:34:16.223Z,100910.69
2022-12-19T13:39:48.862Z,100920.22
2022-12-19T13:40:54.807Z,100921.91
2022-12-19T13:43:42.523Z,100909.34
2022-12-19T13:46:43.610Z,100915.78
2022-12-19T13:49:34.353Z,100910.28
2022-12-19T13:52:20.769Z,100910.47
2022-12-19T13:55:13.518Z,100905.28
2022-12-19T13:57:59.412Z,100898.44
2022-12-19T14:00:50.314Z,100898.56
2022-12-19T14:03:43.310Z,100892.50
2022-12-19T14:06:31.409Z,100878.81
2022-12-19T14:11:32.831Z,100871.25
2022-12-19T14:13:43.737Z,100868.59
2022-12-19T14:16:02.090Z,100864.38
2022-12-19T14:18:49.325Z,100863.25
2022-12-19T14:22:05.492Z,100864.19
2022-12-19T14:24:41.439Z,100854.03
2022-12-19T14:28:24.935Z,100845.59
2022-12-19T14:30:51.748Z,100840.47
2022-12-19T14:34:11.169Z,100849.91
2022-12-19T14:36:57.167Z,100859.47
2022-12-19T14:39:50.710Z,100884.19
2022-12-19T14:43:55.846Z,100879.09
2022-12-19T14:53:34.138Z,100895.34
2022-12-19T14:54:23.272Z,100908.72
2022-12-19T14:59:44.094Z,100915.91
2022-12-19T15:02:33.915Z,100915.50
2022-12-19T15:05:20.002Z,100916.41
2022-12-19T15:08:10.745Z,100906.50
2022-12-19T15:11:14.819Z,100898.81
2022-12-19T15:14:56.728Z,100899.16
2022-12-19T15:17:22.960Z,100895.63
2022-12-19T15:20:11.819Z,100900.84
2022-12-19T15:22:57.188Z,100901.84
2022-12-19T15:26:03.450Z,100900.66
2022-12-19T15:28:49.977Z,100895.41
2022-12-19T15:31:38.647Z,100906.00
2022-12-19T15:34:44.339Z,100899.69
2022-12-19T15:37:34.051Z,100891.09
2022-12-19T15:40:19.714Z,100889.44
2022-12-19T15:43:53.221Z,100888.69
2022-12-19T15:46:30.565Z,100885.44
2022-12-19T15:49:20.859Z,100880.75
2022-12-19T15:52:15.601Z,100884.28
2022-12-19T15:55:01.230Z,100884.84
2022-12-19T15:57:56.666Z,100879.59
2022-12-19T16:00:45.004Z,100874.19
2022-12-19T16:03:37.032Z,100868.09
2022-12-19T16:06:22.685Z,100855.94
2022-12-19T16:09:24.151Z,100868.00
2022-12-19T16:12:14.433Z,100855.38
2022-12-19T16:15:01.641Z,100843.97
2022-12-19T16:17:46.915Z,100822.16
2022-12-19T16:20:35.354Z,100780.78
2022-12-19T16:23:20.594Z,100741.22
2022-12-19T16:26:16.023Z,100721.41
2022-12-19T16:29:02.070Z,100693.97
2022-12-19T16:31:48.145Z,100683.00
2022-12-19T16:34:34.030Z,100667.53
2022-12-19T16:37:19.828Z,100676.44
2022-12-19T16:40:06.001Z,100701.34
2022-12-19T16:42:59.200Z,100709.84
2022-12-19T16:45:46.036Z,100717.47
2022-12-19T16:48:34.908Z,100717.81
2022-12-19T16:51:23.400Z,100723.72
2022-12-19T16:54:11.682Z,100733.91
2022-12-19T16:56:57.309Z,100729.56
2022-12-19T16:59:42.998Z,100744.28
2022-12-19T17:02:31.403Z,100737.69
2022-12-19T17:05:22.109Z,100748.25
2022-12-19T17:08:12.273Z,100737.28
2022-12-19T17:10:57.566Z,100744.47
2022-12-19T17:13:45.357Z,100744.88
2022-12-19T17:16:31.602Z,100746.13
2022-12-19T17:19:26.553Z,100752.22
2022-12-19T17:22:16.927Z,100749.56
2022-12-19T17:25:15.144Z,100751.31
2022-12-19T17:28:00.523Z,100763.31
2022-12-19T17:30:51.795Z,100766.63
2022-12-19T17:33:40.575Z,100771.59
2022-12-19T17:36:34.712Z,100788.44
2022-12-19T17:39:26.037Z,100799.06
2022-12-19T17:42:20.709Z,100823.50
2022-12-19T17:45:06.551Z,100826.41
2022-12-19T17:47:58.413Z,100826.19
2022-12-19T17:50:48.142Z,100838.91
2022-12-19T17:53:33.716Z,100836.97
2022-12-19T17:56:20.392Z,100846.13
2022-12-19T17:59:06.509Z,100855.44
2022-12-19T18:01:52.595Z,100856.41
2022-12-19T18:04:38.383Z,100865.03
2022-12-19T18:07:25.206Z,100867.22
2022-12-19T18:10:18.599Z,100866.50
2022-12-19T18:13:04.148Z,100873.25
2022-12-19T18:15:50.076Z,100880.94
2022-12-19T18:18:36.523Z,100879.34
2022-12-19T18:21:22.476Z,100877.50
2022-12-19T18:24:12.329Z,100877.72
2022-12-19T18:26:58.151Z,100873.25
2022-12-19T18:29:43.926Z,100880.75
2022-12-19T18:32:29.686Z,100885.13
2022-12-19T18:35:36.950Z,100880.06
2022-12-19T18:38:23.872Z,100885.13
2022-12-19T18:41:12.807Z,100880.13
2022-12-19T18:44:01.393Z,100887.25
2022-12-19T18:46:50.303Z,100882.03
2022-12-19T18:49:35.901Z,100896.25
2022-12-19T18:52:21.361Z,100886.69
2022-12-19T18:55:16.887Z,100898.84
2022-12-19T18:58:02.153Z,100894.16
2022-12-19T19:01:00.856Z,100888.38
2022-12-19T19:03:55.481Z,100884.31
2022-12-19T19:06:50.059Z,100873.66
2022-12-19T19:09:36.805Z,100877.53
2022-12-19T19:12:22.559Z,100866.78
2022-12-19T19:15:09.715Z,100866.16
2022-12-19T19:18:07.692Z,100869.69
2022-12-19T19:21:00.803Z,100874.56
2022-12-19T19:24:00.163Z,100871.59
2022-12-19T19:26:46.030Z,100870.91
2022-12-19T19:29:31.359Z,100878.78
2022-12-19T19:32:17.878Z,100869.28
2022-12-19T19:35:06.905Z,100876.91
2022-12-19T19:37:54.518Z,100862.75
2022-12-19T19:40:40.275Z,100887.78
2022-12-19T19:43:25.789Z,100876.69
2022-12-19T19:46:11.239Z,100891.25
2022-12-19T19:48:57.425Z,100892.97
2022-12-19T19:51:42.864Z,100887.53
2022-12-19T19:54:28.221Z,100895.06
2022-12-19T19:57:13.829Z,100889.75
2022-12-19T19:59:59.261Z,100886.41
2022-12-19T20:02:44.908Z,100895.06
2022-12-19T20:05:30.556Z,100890.16
2022-12-19T20:08:16.805Z,100876.31
2022-12-19T20:11:02.868Z,100882.88
2022-12-19T20:13:48.147Z,100888.44
2022-12-19T20:16:33.515Z,100896.91
2022-12-19T20:19:19.155Z,100892.59
2022-12-19T20:22:04.661Z,100899.13
2022-12-19T20:24:50.216Z,100902.31
2022-12-19T20:27:35.610Z,100897.28
2022-12-19T20:30:20.991Z,100881.81
2022-12-19T20:33:06.437Z,100871.38
2022-12-19T20:35:58.770Z,100868.03
2022-12-19T20:38:44.196Z,100857.16
2022-12-19T20:41:29.616Z,100859.22
2022-12-19T20:44:20.364Z,100844.16
2022-12-19T20:47:09.283Z,100848.44
2022-12-19T20:49:54.796Z,100843.03
2022-12-19T20:52:40.396Z,100853.59
2022-12-19T20:55:25.921Z,100853.75
2022-12-19T20:58:11.442Z,100857.53
2022-12-19T21:01:12.251Z,100861.16
2022-12-19T21:03:58.278Z,100853.41
2022-12-19T21:06:43.991Z,100856.00
2022-12-19T21:09:29.325Z,100858.81
2022-12-19T21:12:21.382Z,100847.06
2022-12-19T21:15:07.646Z,100839.50
2022-12-19T21:17:54.466Z,100828.47
2022-12-19T21:20:39.838Z,100836.91
2022-12-19T21:23:25.940Z,100830.88
2022-12-19T21:26:12.313Z,100839.16
2022-12-19T21:28:57.971Z,100833.81
2022-12-19T21:31:43.395Z,100846.78
2022-12-19T21:34:28.878Z,100856.94
2022-12-19T21:37:14.468Z,100845.59
2022-12-19T21:39:59.792Z,100861.38
2022-12-19T21:42:47.418Z,100841.66
2022-12-19T21:45:36.261Z,100845.94
2022-12-19T21:48:23.661Z,100839.38
2022-12-19T21:51:11.977Z,100852.28
2022-12-19T21:54:00.513Z,100860.19
2022-12-19T21:56:45.965Z,100837.66
2022-12-19T21:59:31.247Z,100842.03
2022-12-19T22:02:16.806Z,100844.47
2022-12-19T22:05:02.955Z,100827.50
2022-12-19T22:07:48.751Z,100836.41
2022-12-19T22:10:34.341Z,100844.91
2022-12-19T22:13:21.748Z,100848.28
2022-12-19T22:16:10.117Z,100846.72
2022-12-19T22:18:56.099Z,100844.41
2022-12-19T22:21:41.679Z,100852.41
2022-12-19T22:24:26.926Z,100860.53
2022-12-19T22:27:12.312Z,100845.19
2022-12-19T22:30:03.604Z,100851.00
2022-12-19T22:32:52.312Z,100841.88
2022-12-19T22:35:37.674Z,100838.59
2022-12-19T22:38:22.993Z,100838.78
2022-12-19T22:41:08.909Z,100841.25
2022-12-19T22:43:55.742Z,100853.50
2022-12-19T22:46:41.143Z,100838.00
2022-12-19T22:49:27.475Z,100838.88
2022-12-19T22:52:13.198Z,100833.06
2022-12-19T22:54:58.349Z,100830.56
2022-12-19T22:57:43.609Z,100829.63
2022-12-19T23:00:28.992Z,100827.84
2022-12-19T23:03:14.523Z,100827.84
2022-12-19T23:06:01.390Z,100825.44
2022-12-19T23:08:47.714Z,100822.66
2022-12-19T23:11:36.448Z,100832.19
2022-12-19T23:14:22.222Z,100817.88
2022-12-19T23:17:07.535Z,100813.72
2022-12-19T23:19:53.265Z,100805.91
2022-12-19T23:22:38.735Z,100807.63
2022-12-19T23:25:24.135Z,100808.63
2022-12-19T23:28:10.238Z,100792.19
2022-12-19T23:31:07.113Z,100801.69
2022-12-19T23:33:53.582Z,100803.53
2022-12-19T23:39:45.089Z,100818.97
2022-12-19T23:42:31.061Z,100807.75
2022-12-19T23:45:16.948Z,100801.59
2022-12-19T23:48:02.109Z,100810.34
2022-12-19T23:50:47.632Z,100812.66
2022-12-19T23:53:33.465Z,100806.66
2022-12-19T23:56:28.101Z,100811.81
2022-12-19T23:59:13.451Z,100816.84
